Time;durP1;ratioP1;P1;durP2;ratioP2;P2;SDS_P1;SDS_P2;PMS_P1;PMS_P2;Temp;Humidity;BMP_temperature;BMP_pressure;BME280_temperature;BME280_humidity;BME280_pressure;Samples;Min_cycle;Max_cycle;Signal;HPM_P1;HPM_P2
2021/04/27 00:00:53;;;;;;;2.60;2.25;;;5.40;99.90;;;;;;5073823;28;20024;-72
2021/04/27 00:03:19;;;;;;;3.63;2.55;;;5.40;99.90;;;;;;5074373;28;20119;-72
2021/04/27 00:05:45;;;;;;;3.45;2.35;;;5.40;99.90;;;;;;5074539;28;20056;-72
2021/04/27 00:08:10;;;;;;;4.15;2.63;;;5.30;99.90;;;;;;5073915;28;20070;-72
2021/04/27 00:10:36;;;;;;;2.78;2.50;;;5.30;99.90;;;;;;5073800;28;20017;-72
2021/04/27 00:13:02;;;;;;;4.30;2.40;;;5.20;99.90;;;;;;5074099;28;20024;-72
2021/04/27 00:15:29;;;;;;;12.40;2.90;;;5.20;99.90;;;;;;5073160;28;20020;-72
2021/04/27 00:17:58;;;;;;;6.65;2.60;;;5.20;99.90;;;;;;5073770;28;20039;-73
2021/04/27 00:20:24;;;;;;;6.50;2.38;;;5.20;99.90;;;;;;5073869;28;20372;-72
2021/04/27 00:22:57;;;;;;;5.97;2.53;;;5.10;99.90;;;;;;5073153;28;20052;-72
2021/04/27 00:25:24;;;;;;;11.48;3.30;;;5.10;99.90;;;;;;5073654;28;20082;-73
2021/04/27 00:27:51;;;;;;;4.95;3.03;;;5.00;99.90;;;;;;5073009;28;20074;-72
2021/04/27 00:30:21;;;;;;;7.10;3.22;;;5.00;99.90;;;;;;5073542;28;20559;-72
2021/04/27 00:32:47;;;;;;;4.28;2.63;;;5.10;99.90;;;;;;5073617;28;20044;-72
2021/04/27 00:35:14;;;;;;;8.20;2.75;;;5.00;99.90;;;;;;5072934;28;20020;-72
2021/04/27 00:37:40;;;;;;;7.22;2.95;;;5.00;99.90;;;;;;5073819;28;20071;-73
2021/04/27 00:40:08;;;;;;;3.88;2.70;;;5.00;99.90;;;;;;5072377;28;20480;-72
2021/04/27 00:42:36;;;;;;;4.72;3.22;;;4.90;99.90;;;;;;5071642;28;20029;-72
2021/04/27 00:45:06;;;;;;;6.88;3.42;;;4.80;99.90;;;;;;5073192;28;20033;-73
2021/04/27 00:47:32;;;;;;;6.82;4.30;;;4.90;99.90;;;;;;5073181;28;20316;-73
2021/04/27 00:49:58;;;;;;;3.20;2.67;;;4.90;99.90;;;;;;5072420;28;20134;-72
2021/04/27 00:52:24;;;;;;;6.55;3.03;;;4.80;99.90;;;;;;5073055;28;20028;-73
2021/04/27 00:54:53;;;;;;;3.50;2.90;;;4.70;99.90;;;;;;5073184;28;20041;-72
2021/04/27 00:57:20;;;;;;;4.45;2.40;;;4.70;99.90;;;;;;5072209;28;20032;-72
2021/04/27 00:59:46;;;;;;;7.13;2.90;;;4.70;99.90;;;;;;5073129;28;20024;-72
2021/04/27 01:02:12;;;;;;;4.75;3.10;;;4.60;99.90;;;;;;5075255;28;20147;-73
2021/04/27 01:04:38;;;;;;;5.82;2.45;;;4.60;99.90;;;;;;5080597;28;20036;-72
2021/04/27 01:07:03;;;;;;;4.85;2.58;;;4.60;99.90;;;;;;5073354;28;20021;-72
2021/04/27 01:09:58;;;;;;;4.35;3.53;;;4.60;99.90;;;;;;5072667;28;20055;-72
2021/04/27 01:12:29;;;;;;;4.85;2.67;;;4.60;99.90;;;;;;5057119;28;20480;-72
2021/04/27 01:15:08;;;;;;;4.40;2.67;;;4.50;99.90;;;;;;5073554;28;20050;-72
2021/04/27 01:17:35;;;;;;;6.25;2.75;;;4.50;99.90;;;;;;5075289;28;20040;-73
2021/04/27 01:20:06;;;;;;;4.47;2.47;;;4.50;99.90;;;;;;5077817;28;20029;-73
2021/04/27 01:22:43;;;;;;;4.70;2.92;;;4.50;99.90;;;;;;5072851;28;20020;-72
2021/04/27 01:25:13;;;;;;;6.10;3.33;;;4.40;99.90;;;;;;5072024;28;20047;-72
2021/04/27 01:27:39;;;;;;;5.20;3.10;;;4.40;99.90;;;;;;5072717;28;20047;-72
2021/04/27 01:30:05;;;;;;;8.55;3.00;;;4.40;99.90;;;;;;5072419;28;20504;-72
2021/04/27 01:32:32;;;;;;;5.90;3.03;;;4.40;99.90;;;;;;5071438;28;20423;-72
2021/04/27 01:34:58;;;;;;;5.10;2.95;;;4.40;99.90;;;;;;5072489;28;20469;-72
2021/04/27 01:37:25;;;;;;;5.75;2.97;;;4.30;99.90;;;;;;5072384;28;20016;-73
2021/04/27 01:39:52;;;;;;;4.65;2.67;;;4.30;99.90;;;;;;5071843;28;20024;-72
2021/04/27 01:42:18;;;;;;;3.00;2.72;;;4.30;99.90;;;;;;5072225;28;20079;-72
2021/04/27 01:44:44;;;;;;;5.75;2.78;;;4.30;99.90;;;;;;5072169;28;20028;-73
2021/04/27 01:47:10;;;;;;;8.55;3.30;;;4.30;99.90;;;;;;5071813;28;20024;-72
2021/04/27 01:49:40;;;;;;;4.43;3.38;;;4.30;99.90;;;;;;5072003;28;20031;-72
2021/04/27 01:52:06;;;;;;;7.53;3.10;;;4.30;99.90;;;;;;5072449;28;20033;-72
2021/04/27 01:54:32;;;;;;;4.95;3.20;;;4.20;99.90;;;;;;5070835;28;20140;-72
2021/04/27 01:56:58;;;;;;;4.30;3.20;;;4.20;99.90;;;;;;5072389;28;20020;-72
2021/04/27 01:59:24;;;;;;;5.97;2.75;;;4.20;99.90;;;;;;5071052;28;20028;-73
2021/04/27 02:01:50;;;;;;;3.40;2.63;;;4.20;99.90;;;;;;5087613;28;20027;-73
2021/04/27 02:04:27;;;;;;;4.22;2.63;;;4.20;99.90;;;;;;5071654;28;20511;-72
2021/04/27 02:06:54;;;;;;;5.90;2.85;;;4.10;99.90;;;;;;5071737;28;20016;-73
2021/04/27 02:09:23;;;;;;;4.60;2.88;;;4.10;99.90;;;;;;5072000;28;20371;-72
2021/04/27 02:11:51;;;;;;;5.05;2.92;;;4.10;99.90;;;;;;5072236;28;20139;-73
2021/04/27 02:14:19;;;;;;;2.97;2.65;;;4.10;99.90;;;;;;5071102;28;20024;-73
2021/04/27 02:17:00;;;;;;;3.42;2.58;;;4.10;99.90;;;;;;5072237;28;20036;-72
2021/04/27 02:19:29;;;;;;;5.40;3.22;;;4.10;99.90;;;;;;5072947;28;20111;-72
2021/04/27 02:22:03;;;;;;;4.75;2.90;;;4.10;99.90;;;;;;5075241;28;20029;-72
2021/04/27 02:24:34;;;;;;;8.45;3.40;;;4.10;99.90;;;;;;5072289;28;20528;-72
2021/04/27 02:27:00;;;;;;;6.60;2.97;;;4.10;99.90;;;;;;5071855;28;20060;-72
2021/04/27 02:29:26;;;;;;;4.32;3.45;;;4.10;99.90;;;;;;5070972;28;20032;-72
2021/04/27 02:31:52;;;;;;;4.20;2.92;;;4.00;99.90;;;;;;5071551;28;20043;-72
2021/04/27 02:34:23;;;;;;;3.55;3.25;;;4.00;99.90;;;;;;5071387;28;20131;-72
2021/04/27 02:36:49;;;;;;;;;;;4.00;99.90;;;;;;5071916;28;20080;-72
2021/04/27 02:39:16;;;;;;;5.70;3.40;;;4.00;99.90;;;;;;5071754;28;19908;-72
2021/04/27 02:41:41;;;;;;;6.38;3.38;;;3.90;99.90;;;;;;5071157;28;20107;-72
2021/04/27 02:44:08;;;;;;;7.88;3.42;;;3.90;99.90;;;;;;5071486;28;20124;-72
2021/04/27 02:46:34;;;;;;;4.32;3.90;;;3.90;99.90;;;;;;5071393;28;20123;-72
2021/04/27 02:49:00;;;;;;;4.25;3.40;;;3.90;99.90;;;;;;5070867;28;20028;-71
2021/04/27 02:51:25;;;;;;;4.88;3.30;;;3.90;99.90;;;;;;5071560;28;20086;-71
2021/04/27 02:53:51;;;;;;;7.90;5.07;;;3.80;99.90;;;;;;5072041;28;20067;-72
2021/04/27 02:56:17;;;;;;;4.57;2.92;;;3.80;99.90;;;;;;5070779;28;20422;-72
2021/04/27 02:58:42;;;;;;;5.82;3.50;;;3.80;99.90;;;;;;5071815;28;20060;-72
2021/04/27 03:01:08;;;;;;;5.05;3.33;;;3.80;99.90;;;;;;5071357;28;20019;-72
2021/04/27 03:03:34;;;;;;;4.28;3.38;;;3.80;99.90;;;;;;5070709;28;20077;-72
2021/04/27 03:06:00;;;;;;;6.45;3.00;;;3.70;99.90;;;;;;5077064;28;20027;-72
2021/04/27 03:08:28;;;;;;;7.35;4.38;;;3.70;99.90;;;;;;5076122;28;20024;-72
2021/04/27 03:10:54;;;;;;;7.13;3.00;;;3.70;99.90;;;;;;5074798;28;20025;-72
2021/04/27 03:13:20;;;;;;;5.65;3.05;;;3.70;99.90;;;;;;5075037;28;20077;-72
2021/04/27 03:15:46;;;;;;;4.15;3.47;;;3.60;99.90;;;;;;5078729;28;20484;-72
2021/04/27 03:18:12;;;;;;;6.38;3.40;;;3.60;99.90;;;;;;5075004;28;20056;-72
2021/04/27 03:20:37;;;;;;;5.13;3.47;;;3.60;99.90;;;;;;5078241;28;20461;-71
2021/04/27 03:23:05;;;;;;;4.60;3.33;;;3.50;99.90;;;;;;5075960;28;20021;-71
2021/04/27 03:25:31;;;;;;;11.15;3.38;;;3.50;99.90;;;;;;5074501;28;20111;-71
2021/04/27 03:27:56;;;;;;;5.93;3.55;;;3.60;99.90;;;;;;5075190;28;20059;-72
2021/04/27 03:30:22;;;;;;;4.22;3.35;;;3.50;99.90;;;;;;5074747;28;20467;-71
2021/04/27 03:32:47;;;;;;;8.30;3.30;;;3.50;99.90;;;;;;5074145;28;20508;-72
2021/04/27 03:35:13;;;;;;;6.63;3.35;;;3.50;99.90;;;;;;5074521;28;20035;-73
2021/04/27 03:37:40;;;;;;;6.97;3.33;;;3.50;99.90;;;;;;5074632;28;20059;-72
2021/04/27 03:40:10;;;;;;;7.65;3.65;;;3.40;99.90;;;;;;5074872;28;20075;-71
2021/04/27 03:42:36;;;;;;;6.20;3.50;;;3.40;99.90;;;;;;5074685;28;20063;-72
2021/04/27 03:45:05;;;;;;;5.55;3.30;;;3.40;99.90;;;;;;5074166;28;20090;-71
2021/04/27 03:47:30;;;;;;;5.47;3.20;;;3.30;99.90;;;;;;5074367;28;20372;-71
2021/04/27 03:49:58;;;;;;;5.43;3.10;;;3.30;99.90;;;;;;5074748;28;20009;-72
2021/04/27 03:52:24;;;;;;;6.00;3.30;;;3.30;99.90;;;;;;5074143;28;20032;-72
2021/04/27 03:54:50;;;;;;;5.75;3.42;;;3.30;99.90;;;;;;5076100;28;20021;-71
2021/04/27 03:57:15;;;;;;;6.20;3.05;;;3.30;99.90;;;;;;5074573;28;20037;-73
2021/04/27 03:59:41;;;;;;;4.43;2.80;;;3.30;99.90;;;;;;5073802;28;20017;-73
2021/04/27 04:02:06;;;;;;;4.50;3.20;;;3.30;99.90;;;;;;5074543;28;20028;-72
2021/04/27 04:04:32;;;;;;;3.85;3.35;;;3.30;99.90;;;;;;5073861;28;20446;-72
2021/04/27 04:06:58;;;;;;;4.72;3.92;;;3.30;99.90;;;;;;5073820;28;20013;-72
2021/04/27 04:09:23;;;;;;;5.20;3.60;;;3.30;99.90;;;;;;5074193;28;20388;-72
2021/04/27 04:11:49;;;;;;;4.95;3.33;;;3.30;99.90;;;;;;5060199;28;20020;-72
2021/04/27 04:14:14;;;;;;;8.25;3.45;;;3.30;99.90;;;;;;5073482;28;20028;-72
2021/04/27 04:16:40;;;;;;;7.50;3.45;;;3.30;99.90;;;;;;5073647;28;20069;-72
2021/04/27 04:19:06;;;;;;;4.63;2.70;;;3.30;99.90;;;;;;5073653;28;20598;-72
2021/04/27 04:21:31;;;;;;;8.15;3.28;;;3.30;99.90;;;;;;5072909;28;20500;-71
2021/04/27 04:23:57;;;;;;;4.72;3.30;;;3.30;99.90;;;;;;5074017;28;20043;-71
2021/04/27 04:26:23;;;;;;;6.00;3.65;;;3.30;99.90;;;;;;5073564;28;20029;-72
2021/04/27 04:28:48;;;;;;;7.05;4.00;;;3.30;99.90;;;;;;5073284;28;20036;-71
2021/04/27 04:31:14;;;;;;;4.75;3.08;;;3.30;99.90;;;;;;5073805;28;20021;-72
2021/04/27 04:33:40;;;;;;;7.25;3.33;;;3.30;99.90;;;;;;5073515;28;20044;-72
2021/04/27 04:36:06;;;;;;;6.32;3.10;;;3.40;99.90;;;;;;5073517;28;20043;-72
2021/04/27 04:38:32;;;;;;;4.50;3.53;;;3.40;99.90;;;;;;5073607;28;20098;-71
2021/04/27 04:40:58;;;;;;;4.55;3.10;;;3.50;99.90;;;;;;5073710;28;20407;-71
2021/04/27 04:43:24;;;;;;;3.58;3.28;;;3.60;99.90;;;;;;5073345;28;20032;-72
2021/04/27 04:45:50;;;;;;;5.47;3.50;;;3.70;99.90;;;;;;5073450;28;20019;-72
2021/04/27 04:48:15;;;;;;;4.63;3.08;;;3.70;99.90;;;;;;5072346;28;20021;-72
2021/04/27 04:50:42;;;;;;;6.63;3.38;;;3.70;99.90;;;;;;5073534;28;20035;-72
2021/04/27 04:53:07;;;;;;;7.03;3.90;;;3.80;99.90;;;;;;5073592;28;20055;-72
2021/04/27 04:55:34;;;;;;;6.10;3.58;;;3.80;99.90;;;;;;5072775;28;20082;-72
2021/04/27 04:58:00;;;;;;;9.10;4.03;;;3.90;99.90;;;;;;5073796;28;20021;-72
2021/04/27 05:00:26;;;;;;;7.32;3.53;;;4.00;99.90;;;;;;5073715;28;20476;-72
2021/04/27 05:02:52;;;;;;;4.40;3.55;;;4.00;99.90;;;;;;5073112;28;20111;-72
2021/04/27 05:05:18;;;;;;;6.13;3.90;;;4.10;99.90;;;;;;5073218;28;20465;-74
2021/04/27 05:07:46;;;;;;;10.13;3.17;;;4.20;99.90;;;;;;5079347;28;20385;-72
2021/04/27 05:10:14;;;;;;;5.10;3.88;;;4.30;99.90;;;;;;5073612;28;20029;-72
2021/04/27 05:12:40;;;;;;;10.88;4.20;;;4.40;99.90;;;;;;5073305;28;20080;-72
2021/04/27 05:15:07;;;;;;;5.63;3.92;;;4.50;99.90;;;;;;5073184;28;20111;-72
2021/04/27 05:17:33;;;;;;;3.75;3.25;;;4.50;99.90;;;;;;5076224;28;20062;-72
2021/04/27 05:20:00;;;;;;;5.47;3.40;;;4.60;99.90;;;;;;5074571;28;20427;-72
2021/04/27 05:22:26;;;;;;;6.78;4.00;;;4.90;99.90;;;;;;5079331;28;20359;-72
2021/04/27 05:24:52;;;;;;;4.88;3.40;;;4.70;99.90;;;;;;5074087;28;20040;-72
2021/04/27 05:27:21;;;;;;;4.43;3.28;;;4.60;99.90;;;;;;5072812;28;20027;-72
2021/04/27 05:29:46;;;;;;;5.38;3.88;;;4.70;99.90;;;;;;5072084;28;20052;-72
2021/04/27 05:32:12;;;;;;;8.60;3.58;;;4.70;99.90;;;;;;5071594;28;20460;-72
2021/04/27 05:34:38;;;;;;;5.93;4.07;;;4.70;99.90;;;;;;5072520;28;20059;-72
2021/04/27 05:37:04;;;;;;;5.53;3.75;;;4.70;99.90;;;;;;5072772;28;20411;-72
2021/04/27 05:39:30;;;;;;;7.63;6.40;;;4.60;99.90;;;;;;5071981;28;20028;-72
2021/04/27 05:41:56;;;;;;;14.43;7.15;;;4.60;99.90;;;;;;5072269;28;20028;-73
2021/04/27 05:44:23;;;;;;;17.35;8.77;;;4.60;99.90;;;;;;5071150;28;20037;-72
2021/04/27 05:46:49;;;;;;;8.93;8.00;;;4.50;99.90;;;;;;5072221;28;20025;-73
2021/04/27 05:49:16;;;;;;;12.05;10.15;;;4.40;99.90;;;;;;5071983;28;20042;-72
2021/04/27 05:51:42;;;;;;;10.52;9.02;;;4.50;99.90;;;;;;5071702;28;20460;-72
2021/04/27 05:54:07;;;;;;;8.20;7.40;;;4.50;99.90;;;;;;5072520;28;20090;-71
2021/04/27 05:56:34;;;;;;;7.70;5.68;;;4.50;99.90;;;;;;5072089;28;20020;-72
2021/04/27 05:59:00;;;;;;;9.27;6.15;;;4.60;99.90;;;;;;5071657;28;20032;-72
2021/04/27 06:01:26;;;;;;;6.30;5.15;;;4.70;99.90;;;;;;5071767;28;20020;-73
2021/04/27 06:03:51;;;;;;;8.50;5.80;;;4.80;99.90;;;;;;5072307;28;20036;-72
2021/04/27 06:06:17;;;;;;;5.75;4.93;;;4.90;99.90;;;;;;5071282;28;20022;-72
2021/04/27 06:08:43;;;;;;;6.50;5.15;;;5.10;99.90;;;;;;5072176;28;20025;-73
2021/04/27 06:11:09;;;;;;;7.40;4.68;;;5.30;99.90;;;;;;5072109;28;20031;-73
2021/04/27 06:13:34;;;;;;;10.75;4.35;;;5.50;99.90;;;;;;5071067;28;20381;-73
2021/04/27 06:16:01;;;;;;;5.03;3.92;;;5.70;99.90;;;;;;5072175;28;20077;-73
2021/04/27 06:18:27;;;;;;;9.10;4.18;;;5.90;99.90;;;;;;5071734;28;20012;-72
2021/04/27 06:20:53;;;;;;;6.10;4.18;;;6.10;99.90;;;;;;5071640;28;20020;-71
2021/04/27 06:23:19;;;;;;;7.38;4.40;;;6.30;99.90;;;;;;5071590;28;20027;-72
2021/04/27 06:25:44;;;;;;;7.63;4.30;;;6.40;99.90;;;;;;5072079;28;20033;-72
2021/04/27 06:28:13;;;;;;;4.90;4.40;;;6.40;99.90;;;;;;5071145;28;20048;-72
2021/04/27 06:30:43;;;;;;;6.68;3.85;;;6.50;99.90;;;;;;5072120;28;20029;-72
2021/04/27 06:33:09;;;;;;;7.32;4.53;;;6.60;99.90;;;;;;5071597;28;20484;-73
2021/04/27 06:35:34;;;;;;;9.27;4.47;;;6.70;99.90;;;;;;5071051;28;20039;-72
2021/04/27 06:38:00;;;;;;;6.07;4.22;;;6.70;99.90;;;;;;5071894;28;20017;-72
2021/04/27 06:40:27;;;;;;;5.53;4.30;;;6.80;99.90;;;;;;5071587;28;20024;-73
2021/04/27 06:42:52;;;;;;;7.30;4.18;;;6.90;99.90;;;;;;5074730;28;20024;-72
2021/04/27 06:45:18;;;;;;;4.65;3.92;;;7.00;99.90;;;;;;5075251;28;20037;-73
2021/04/27 06:47:46;;;;;;;9.48;4.30;;;7.00;99.90;;;;;;5075091;28;20016;-72
2021/04/27 06:50:12;;;;;;;5.95;4.57;;;7.10;99.90;;;;;;5075855;28;20032;-71
2021/04/27 06:52:38;;;;;;;5.07;4.57;;;7.20;99.90;;;;;;5075682;28;20032;-71
2021/04/27 06:55:04;;;;;;;6.38;4.60;;;7.20;99.90;;;;;;5075012;28;20028;-72
2021/04/27 06:57:30;;;;;;;7.47;4.97;;;7.40;99.90;;;;;;5075294;28;20051;-73
2021/04/27 06:59:56;;;;;;;7.47;5.28;;;7.40;99.90;;;;;;5075907;28;20020;-73
2021/04/27 07:02:22;;;;;;;5.80;5.13;;;7.40;99.90;;;;;;5074706;28;20430;-73
2021/04/27 07:04:51;;;;;;;7.70;5.72;;;7.40;99.90;;;;;;5075330;28;20029;-73
2021/04/27 07:07:16;;;;;;;9.63;5.13;;;7.50;99.90;;;;;;5075698;28;20025;-73
2021/04/27 07:09:42;;;;;;;5.90;4.75;;;7.60;99.90;;;;;;5081829;28;20462;-73
2021/04/27 07:12:08;;;;;;;8.25;4.75;;;7.70;99.90;;;;;;5077596;28;20376;-72
2021/04/27 07:14:34;;;;;;;6.68;5.13;;;7.70;99.90;;;;;;5075541;28;20020;-74
2021/04/27 07:17:00;;;;;;;5.32;4.82;;;7.70;99.90;;;;;;5075000;28;20059;-73
2021/04/27 07:19:26;;;;;;;4.97;4.57;;;7.80;99.90;;;;;;5076015;28;20455;-73
2021/04/27 07:21:53;;;;;;;9.52;4.90;;;7.90;99.90;;;;;;5075816;28;20020;-74
2021/04/27 07:24:19;;;;;;;10.52;5.10;;;7.90;99.90;;;;;;5079813;28;20060;-72
2021/04/27 07:26:45;;;;;;;5.93;4.47;;;8.00;99.90;;;;;;5077878;28;20047;-74
2021/04/27 07:29:12;;;;;;;11.48;5.72;;;8.00;99.90;;;;;;5076406;28;20032;-73
2021/04/27 07:31:39;;;;;;;8.75;5.43;;;8.20;99.90;;;;;;5074836;28;20456;-73
2021/04/27 07:34:06;;;;;;;6.53;4.90;;;8.20;99.90;;;;;;5075163;28;20040;-73
2021/04/27 07:36:32;;;;;;;9.75;5.90;;;8.40;99.90;;;;;;5075065;28;20024;-73
2021/04/27 07:38:57;;;;;;;7.97;4.57;;;8.50;99.90;;;;;;5074269;28;20024;-72
2021/04/27 07:41:23;;;;;;;10.82;5.40;;;8.60;99.90;;;;;;5074864;28;20025;-73
2021/04/27 07:43:49;;;;;;;8.98;4.85;;;8.60;99.90;;;;;;5074629;28;20570;-73
2021/04/27 07:46:15;;;;;;;5.97;4.80;;;8.70;99.90;;;;;;5074836;28;20021;-72
2021/04/27 07:48:40;;;;;;;7.55;4.75;;;8.80;99.90;;;;;;5075439;28;20111;-73
2021/04/27 07:51:07;;;;;;;5.55;4.97;;;8.90;99.90;;;;;;5074631;28;20021;-73
2021/04/27 07:53:32;;;;;;;7.63;6.07;;;9.00;99.90;;;;;;5074274;28;20877;-73
2021/04/27 07:55:59;;;;;;;7.45;5.60;;;9.10;99.90;;;;;;5074817;28;20060;-73
2021/04/27 07:58:25;;;;;;;8.77;5.28;;;9.10;99.90;;;;;;5073620;28;20016;-72
2021/04/27 08:00:51;;;;;;;8.63;5.75;;;9.20;99.90;;;;;;5074802;28;20024;-73
2021/04/27 08:03:17;;;;;;;8.35;5.13;;;9.20;99.90;;;;;;5073756;28;20020;-73
2021/04/27 08:05:42;;;;;;;6.47;5.55;;;9.20;99.90;;;;;;5073403;28;20104;-73
2021/04/27 08:08:08;;;;;;;8.23;5.07;;;9.10;99.90;;;;;;5073961;28;20025;-73
2021/04/27 08:10:34;;;;;;;7.15;5.55;;;9.10;99.90;;;;;;5073888;28;20494;-74
2021/04/27 08:13:00;;;;;;;9.23;5.50;;;9.20;99.90;;;;;;5073397;28;20029;-74
2021/04/27 08:15:28;;;;;;;11.50;5.63;;;9.20;99.90;;;;;;5073595;28;20025;-73
2021/04/27 08:17:56;;;;;;;8.10;5.47;;;9.30;99.90;;;;;;5073847;28;20039;-72
2021/04/27 08:20:22;;;;;;;5.97;5.10;;;9.30;99.90;;;;;;5072926;28;20024;-72
2021/04/27 08:22:48;;;;;;;5.40;4.90;;;9.30;99.90;;;;;;5073863;28;20024;-72
2021/04/27 08:25:15;;;;;;;7.82;5.93;;;9.30;99.90;;;;;;5073315;28;20396;-73
2021/04/27 08:27:42;;;;;;;9.07;5.65;;;9.40;99.90;;;;;;5073255;28;20055;-73
2021/04/27 08:30:09;;;;;;;9.38;6.10;;;9.40;99.90;;;;;;5073405;28;20703;-72
2021/04/27 08:32:35;;;;;;;6.40;5.65;;;9.50;99.90;;;;;;5072639;28;20484;-73
2021/04/27 08:35:02;;;;;;;5.78;5.18;;;9.50;99.90;;;;;;5072780;28;20029;-72
2021/04/27 08:37:29;;;;;;;7.60;5.63;;;9.50;99.90;;;;;;5073045;28;20020;-73
2021/04/27 08:39:54;;;;;;;7.10;5.88;;;9.50;99.90;;;;;;5073219;28;20024;-72
2021/04/27 08:42:20;;;;;;;6.30;5.53;;;9.40;99.90;;;;;;5072251;28;20028;-72
2021/04/27 08:44:46;;;;;;;7.90;5.28;;;9.40;99.90;;;;;;5073300;28;20064;-72
2021/04/27 08:47:12;;;;;;;9.27;5.95;;;9.50;99.90;;;;;;5072119;28;20456;-72
2021/04/27 08:49:38;;;;;;;6.60;5.60;;;9.50;99.90;;;;;;5072829;28;20058;-72
2021/04/27 08:52:05;;;;;;;10.27;5.63;;;9.60;99.90;;;;;;5072948;28;20465;-73
2021/04/27 08:54:31;;;;;;;5.57;4.93;;;9.60;99.90;;;;;;5071888;28;20028;-73
2021/04/27 08:56:57;;;;;;;8.68;5.85;;;9.70;99.90;;;;;;5072949;28;20421;-73
2021/04/27 08:59:22;;;;;;;8.55;5.30;;;9.80;99.90;;;;;;5072829;28;20171;-72
2021/04/27 09:02:00;;;;;;;6.43;5.82;;;9.90;99.90;;;;;;5071909;28;20016;-72
2021/04/27 09:04:47;;;;;;;6.72;5.72;;;9.90;99.90;;;;;;5071024;28;20032;-74
2021/04/27 09:07:15;;;;;;;6.68;5.82;;;10.00;99.90;;;;;;5072633;28;20024;-74
2021/04/27 09:09:46;;;;;;;8.57;5.75;;;10.10;99.90;;;;;;5073010;28;20518;-74
2021/04/27 09:12:12;;;;;;;8.20;5.55;;;10.20;99.90;;;;;;5078589;28;20028;-73
2021/04/27 09:14:41;;;;;;;6.25;5.47;;;10.20;99.90;;;;;;5073241;28;20047;-73
2021/04/27 09:17:11;;;;;;;6.57;5.30;;;10.30;99.90;;;;;;5072345;28;20025;-73
2021/04/27 09:19:47;;;;;;;12.10;5.47;;;10.30;99.90;;;;;;5073658;28;20036;-74
2021/04/27 09:22:20;;;;;;;6.75;5.78;;;10.40;99.90;;;;;;5077032;28;20043;-73
2021/04/27 09:25:07;;;;;;;13.27;5.72;;;10.40;99.90;;;;;;5079711;28;20364;-73
2021/04/27 09:27:37;;;;;;;6.32;5.68;;;10.50;99.90;;;;;;5072271;28;20033;-73
2021/04/27 09:30:19;;;;;;;11.25;6.10;;;10.50;99.90;;;;;;5073625;28;20039;-73
2021/04/27 09:33:04;;;;;;;7.88;5.50;;;10.60;99.90;;;;;;5072145;28;20032;-73
2021/04/27 09:35:39;;;;;;;6.22;5.63;;;10.80;99.80;;;;;;5071598;28;20388;-73
2021/04/27 09:38:15;;;;;;;11.20;6.05;;;10.90;99.40;;;;;;5071367;28;20041;-73
2021/04/27 09:41:02;;;;;;;10.45;5.88;;;11.00;99.30;;;;;;5071954;28;20385;-73
2021/04/27 09:43:31;;;;;;;8.85;5.60;;;11.20;98.80;;;;;;5070830;28;20052;-73
2021/04/27 09:45:59;;;;;;;7.63;5.55;;;11.40;97.80;;;;;;5071676;28;20039;-73
2021/04/27 09:48:32;;;;;;;5.90;5.35;;;11.40;96.90;;;;;;5071684;28;20017;-74
2021/04/27 09:51:31;;;;;;;11.18;5.82;;;11.40;96.30;;;;;;5071693;28;20020;-73
2021/04/27 09:53:59;;;;;;;7.57;5.78;;;11.50;96.30;;;;;;5072281;28;20021;-73
2021/04/27 09:56:34;;;;;;;6.05;5.45;;;11.60;95.90;;;;;;5071593;28;20017;-73
2021/04/27 09:59:16;;;;;;;11.18;5.38;;;11.80;95.30;;;;;;5071593;28;20417;-72
2021/04/27 10:01:47;;;;;;;6.28;5.68;;;11.90;94.00;;;;;;5072940;28;20024;-72
2021/04/27 10:04:14;;;;;;;6.78;5.40;;;12.00;93.80;;;;;;5072926;28;20054;-74
2021/04/27 10:06:41;;;;;;;6.18;5.57;;;12.10;92.40;;;;;;5073211;28;20019;-74
2021/04/27 10:09:08;;;;;;;5.88;5.28;;;12.20;91.10;;;;;;5072684;28;20052;-73
2021/04/27 10:11:35;;;;;;;8.93;6.43;;;12.30;91.10;;;;;;5069434;28;20024;-73
2021/04/27 10:14:03;;;;;;;12.00;5.55;;;12.40;91.30;;;;;;5072069;28;20024;-73
2021/04/27 10:16:29;;;;;;;9.23;5.70;;;12.50;89.40;;;;;;5071574;28;20101;-73
2021/04/27 10:18:54;;;;;;;7.55;5.35;;;12.50;88.30;;;;;;5071346;28;20024;-74
2021/04/27 10:21:21;;;;;;;6.18;5.60;;;12.70;88.40;;;;;;5071470;28;20020;-74
2021/04/27 10:23:55;;;;;;;10.73;6.35;;;12.70;85.70;;;;;;5072508;28;20064;-74
2021/04/27 10:26:23;;;;;;;6.57;5.10;;;12.80;85.40;;;;;;5071335;28;20029;-73
2021/04/27 10:29:20;;;;;;;6.55;5.57;;;12.90;83.30;;;;;;5072224;28;20537;-73
2021/04/27 10:31:47;;;;;;;6.65;6.00;;;13.00;83.20;;;;;;5072398;28;20021;-73
2021/04/27 10:34:17;;;;;;;9.45;5.03;;;13.00;81.30;;;;;;5071155;28;20056;-73
2021/04/27 10:36:48;;;;;;;10.60;5.90;;;13.10;80.50;;;;;;5072296;28;20472;-73
2021/04/27 10:39:15;;;;;;;8.57;5.90;;;13.20;78.60;;;;;;5071974;28;20305;-75
2021/04/27 10:41:53;;;;;;;5.40;5.00;;;13.30;77.90;;;;;;5071081;28;20464;-74
2021/04/27 10:44:20;;;;;;;6.78;5.55;;;13.40;75.10;;;;;;5071336;28;20048;-73
2021/04/27 10:46:48;;;;;;;5.80;5.28;;;13.60;75.50;;;;;;5071130;28;20083;-73
2021/04/27 10:49:30;;;;;;;11.43;5.60;;;13.60;71.40;;;;;;5071754;28;20549;-74
2021/04/27 10:51:57;;;;;;;6.47;5.72;;;13.60;70.10;;;;;;5071874;28;20080;-74
2021/04/27 10:54:32;;;;;;;6.85;5.32;;;13.70;69.60;;;;;;5070902;28;20032;-74
2021/04/27 10:57:03;;;;;;;9.80;4.28;;;13.70;68.70;;;;;;5071789;28;20021;-74
2021/04/27 10:59:31;;;;;;;5.25;4.80;;;13.80;64.00;;;;;;5071446;28;20119;-74
2021/04/27 11:02:16;;;;;;;5.88;5.28;;;13.80;62.50;;;;;;5071275;28;20025;-74
2021/04/27 11:04:46;;;;;;;5.65;5.13;;;14.00;63.10;;;;;;5071246;28;20043;-74
2021/04/27 11:07:12;;;;;;;10.50;4.75;;;13.90;63.70;;;;;;5071632;28;20497;-74
2021/04/27 11:09:39;;;;;;;6.72;4.57;;;14.00;62.80;;;;;;5071230;28;20476;-73
2021/04/27 11:12:34;;;;;;;6.22;5.63;;;14.00;62.30;;;;;;5078172;28;20055;-73
2021/04/27 11:15:09;;;;;;;8.35;5.18;;;14.00;60.60;;;;;;5065927;28;20032;-73
2021/04/27 11:17:39;;;;;;;4.75;4.35;;;14.00;61.00;;;;;;5071371;28;20052;-74
2021/04/27 11:20:10;;;;;;;5.85;5.35;;;14.10;60.00;;;;;;5071697;28;20029;-74
2021/04/27 11:22:50;;;;;;;;;;;14.20;61.20;;;;;;5072303;28;20025;-74
2021/04/27 11:25:33;;;;;;;5.70;5.10;;;14.30;61.40;;;;;;5074885;28;20153;-74
2021/04/27 11:27:58;;;;;;;5.88;5.30;;;14.40;61.40;;;;;;5075971;28;20024;-75
2021/04/27 11:30:33;;;;;;;5.90;5.25;;;14.40;61.90;;;;;;5076135;28;20021;-73
2021/04/27 11:33:06;;;;;;;5.38;4.93;;;14.50;59.80;;;;;;5075273;28;20020;-74
2021/04/27 11:35:42;;;;;;;7.80;5.57;;;15.40;60.00;;;;;;5074636;28;20472;-74
2021/04/27 11:38:09;;;;;;;6.00;5.47;;;14.60;59.50;;;;;;5074306;28;20025;-74
2021/04/27 11:40:39;;;;;;;4.80;4.38;;;14.70;59.60;;;;;;5074397;28;20065;-74
2021/04/27 11:43:14;;;;;;;5.82;4.95;;;14.80;60.80;;;;;;5074606;28;20098;-74
2021/04/27 11:45:46;;;;;;;5.70;4.70;;;14.80;58.40;;;;;;5074798;28;20043;-74
2021/04/27 11:48:17;;;;;;;5.50;4.97;;;14.80;58.30;;;;;;5074892;28;20031;-73
2021/04/27 11:50:44;;;;;;;6.40;5.80;;;14.90;57.40;;;;;;5073703;28;20032;-73
2021/04/27 11:53:17;;;;;;;6.90;5.50;;;15.00;58.00;;;;;;5074632;28;20066;-74
2021/04/27 11:55:50;;;;;;;6.65;4.97;;;15.00;56.90;;;;;;5074814;28;20023;-73
2021/04/27 11:58:23;;;;;;;5.82;5.15;;;15.10;56.60;;;;;;5073673;28;20561;-73
2021/04/27 12:00:54;;;;;;;8.02;5.38;;;15.20;57.60;;;;;;5074639;28;20143;-72
2021/04/27 12:03:24;;;;;;;5.75;5.25;;;15.20;57.00;;;;;;5074103;28;20060;-74
2021/04/27 12:06:07;;;;;;;6.20;5.60;;;15.20;56.60;;;;;;5073904;28;20484;-73
2021/04/27 12:08:35;;;;;;;6.18;5.50;;;15.10;55.90;;;;;;5061366;28;20086;-74
2021/04/27 12:11:16;;;;;;;5.68;5.18;;;15.20;56.00;;;;;;5074610;28;20035;-74
2021/04/27 12:14:06;;;;;;;5.25;4.75;;;15.20;55.40;;;;;;5074438;28;20024;-74
2021/04/27 12:16:34;;;;;;;6.25;5.03;;;15.30;55.60;;;;;;5064837;28;20039;-73
2021/04/27 12:18:59;;;;;;;6.38;4.65;;;15.40;53.90;;;;;;5089067;28;20024;-73
2021/04/27 12:21:29;;;;;;;6.93;5.60;;;15.60;53.50;;;;;;5073806;28;20020;-74
2021/04/27 12:24:16;;;;;;;14.93;5.28;;;15.70;53.10;;;;;;5073789;28;20035;-74
2021/04/27 12:27:00;;;;;;;7.05;5.68;;;15.70;53.50;;;;;;5073712;28;20388;-73
2021/04/27 12:29:39;;;;;;;5.03;4.47;;;15.80;53.00;;;;;;5074232;28;20078;-74
2021/04/27 12:32:15;;;;;;;7.22;4.95;;;15.80;51.50;;;;;;5074246;28;20093;-74
2021/04/27 12:35:02;;;;;;;6.05;5.07;;;15.80;51.20;;;;;;5073926;28;20055;-74
2021/04/27 12:37:32;;;;;;;5.20;4.68;;;16.00;50.10;;;;;;5073798;28;20016;-73
2021/04/27 12:39:59;;;;;;;;;;;16.10;49.50;;;;;;5073667;28;20029;-74
2021/04/27 12:42:29;;;;;;;4.90;4.40;;;16.30;50.10;;;;;;5073609;28;19904;-74
2021/04/27 12:44:58;;;;;;;6.32;4.93;;;16.30;50.60;;;;;;5073912;28;20138;-74
2021/04/27 12:47:25;;;;;;;7.50;4.72;;;16.30;49.40;;;;;;5072581;28;20028;-75
2021/04/27 12:50:05;;;;;;;7.30;4.97;;;16.40;49.90;;;;;;5074179;28;20099;-74
2021/04/27 12:52:32;;;;;;;5.10;4.70;;;16.50;50.70;;;;;;5074912;28;20059;-73
2021/04/27 12:55:05;;;;;;;7.05;5.70;;;16.60;50.50;;;;;;5073662;28;20103;-73
2021/04/27 12:57:31;;;;;;;5.90;5.00;;;16.80;50.20;;;;;;5073729;28;20027;-75
2021/04/27 13:00:05;;;;;;;5.88;5.38;;;16.80;49.50;;;;;;5074159;28;20025;-74